Time;durP1;ratioP1;P1;durP2;ratioP2;P2;SDS_P1;SDS_P2;PMS_P1;PMS_P2;Temp;Humidity;BMP_temperature;BMP_pressure;BME280_temperature;BME280_humidity;BME280_pressure;Samples;Min_cycle;Max_cycle;Signal;HPM_P1;HPM_P2
2022/11/27 00:00:31;;;;;;;35.92;8.38;;;;;;;5.00;100.00;102248.81;5060450;28;20060;-77
2022/11/27 00:02:57;;;;;;;28.98;8.98;;;;;;;5.04;100.00;102250.50;5094224;28;20062;-77
2022/11/27 00:05:22;;;;;;;36.10;8.18;;;;;;;4.89;100.00;102241.06;5039363;28;20074;-77
2022/11/27 00:07:47;;;;;;;25.75;7.22;;;;;;;4.92;100.00;102243.63;5043324;28;20097;-78
2022/11/27 00:10:13;;;;;;;34.90;8.23;;;;;;;4.97;100.00;102242.56;5055822;28;20029;-77
2022/11/27 00:12:38;;;;;;;35.75;7.97;;;;;;;4.96;100.00;102240.78;5079376;28;20032;-78
2022/11/27 00:15:04;;;;;;;28.73;7.25;;;;;;;4.89;100.00;102231.06;5076342;28;20047;-78
2022/11/27 00:17:29;;;;;;;29.95;7.32;;;;;;;4.89;100.00;102236.50;5093192;28;20048;-77
2022/11/27 00:19:55;;;;;;;35.97;8.50;;;;;;;4.83;100.00;102233.97;5076154;28;20040;-77
2022/11/27 00:22:20;;;;;;;42.20;9.77;;;;;;;4.77;100.00;102240.50;5088378;28;20025;-77
2022/11/27 00:24:48;;;;;;;26.58;8.88;;;;;;;4.72;100.00;102222.59;5046351;28;20488;-78
2022/11/27 00:27:13;;;;;;;38.45;9.10;;;;;;;4.74;100.00;102232.47;5069316;28;20028;-77
2022/11/27 00:29:38;;;;;;;34.42;8.23;;;;;;;4.65;100.00;102226.44;5074218;28;20047;-77
2022/11/27 00:32:06;;;;;;;25.42;7.75;;;;;;;4.64;100.00;102225.56;5051918;28;20119;-77
2022/11/27 00:34:32;;;;;;;33.00;7.90;;;;;;;4.62;100.00;102222.00;5073271;28;20035;-77
2022/11/27 00:36:58;;;;;;;23.63;8.25;;;;;;;4.69;100.00;102219.97;5063442;28;20028;-77
2022/11/27 00:39:23;;;;;;;30.08;8.13;;;;;;;4.67;100.00;102222.72;5076573;28;20040;-77
2022/11/27 00:41:49;;;;;;;35.65;8.73;;;;;;;4.60;100.00;102205.78;5068898;28;20056;-78
2022/11/27 00:44:14;;;;;;;35.53;8.98;;;;;;;4.62;100.00;102212.97;5056873;28;20484;-77
2022/11/27 00:46:42;;;;;;;37.90;8.13;;;;;;;4.51;100.00;102203.38;5046329;28;20032;-78
2022/11/27 00:49:11;;;;;;;41.53;9.98;;;;;;;4.55;100.00;102199.59;5059934;28;20036;-78
2022/11/27 00:51:36;;;;;;;28.13;8.35;;;;;;;4.58;100.00;102199.50;5083045;28;20033;-77
2022/11/27 00:54:02;;;;;;;33.53;9.43;;;;;;;4.50;100.00;102198.00;5073900;28;20051;-77
2022/11/27 00:56:30;;;;;;;32.65;8.75;;;;;;;4.55;100.00;102199.59;5058553;28;20029;-77
2022/11/27 00:58:56;;;;;;;40.85;8.30;;;;;;;4.51;100.00;102197.03;5072553;28;20145;-77
2022/11/27 01:01:25;;;;;;;27.65;8.65;;;;;;;4.46;100.00;102194.50;5081243;28;20097;-78
2022/11/27 01:03:51;;;;;;;32.85;9.02;;;;;;;4.42;100.00;102185.56;5090319;28;20032;-75
2022/11/27 01:06:18;;;;;;;27.05;8.98;;;;;;;4.45;100.00;102202.69;5067986;28;20480;-77
2022/11/27 01:08:43;;;;;;;22.33;8.23;;;;;;;4.39;100.00;102192.91;5092340;28;20081;-77
2022/11/27 01:11:21;;;;;;;25.40;8.95;;;;;;;4.39;100.00;102185.69;5056494;28;20028;-77
2022/11/27 01:13:47;;;;;;;37.28;9.07;;;;;;;4.35;100.00;102183.09;5078439;28;20040;-76
2022/11/27 01:16:16;;;;;;;32.47;9.38;;;;;;;4.33;100.00;102183.16;5058148;28;20102;-77
2022/11/27 01:18:43;;;;;;;33.20;7.70;;;;;;;4.27;100.00;102177.91;5059479;28;20024;-77
2022/11/27 01:21:09;;;;;;;28.58;9.10;;;;;;;4.26;100.00;102172.53;5091000;28;20033;-77
2022/11/27 01:23:35;;;;;;;41.95;9.10;;;;;;;4.27;100.00;102172.50;5096342;28;20039;-77
2022/11/27 01:26:02;;;;;;;36.03;9.80;;;;;;;4.18;100.00;102153.78;5062670;28;20081;-77
2022/11/27 01:28:27;;;;;;;40.13;8.95;;;;;;;4.17;100.00;102166.47;5078747;28;20032;-77
2022/11/27 01:30:53;;;;;;;36.67;9.30;;;;;;;4.19;100.00;102171.84;5069089;28;20081;-77
2022/11/27 01:33:19;;;;;;;32.00;8.15;;;;;;;4.15;100.00;102175.56;5086845;28;20493;-77
2022/11/27 01:35:59;;;;;;;30.55;8.77;;;;;;;4.13;100.00;102172.03;5048981;28;20035;-77
2022/11/27 01:38:26;;;;;;;27.70;9.18;;;;;;;4.11;100.00;102173.91;5059553;28;20097;-77
2022/11/27 01:41:01;;;;;;;38.83;9.75;;;;;;;4.08;100.00;102168.56;5073139;28;20028;-77
2022/11/27 01:43:39;;;;;;;23.60;7.75;;;;;;;4.12;100.00;102178.41;5096001;28;20036;-77
2022/11/27 01:46:30;;;;;;;24.20;7.95;;;;;;;4.14;100.00;102179.25;5082540;28;20040;-77
2022/11/27 01:49:21;;;;;;;30.27;8.65;;;;;;;4.13;100.00;102170.22;5082546;28;20506;-77
2022/11/27 01:51:51;;;;;;;30.80;8.55;;;;;;;4.17;100.00;102152.91;5084769;28;20044;-77
2022/11/27 01:54:19;;;;;;;25.77;7.60;;;;;;;4.10;100.00;102150.44;5068742;28;20028;-77
2022/11/27 01:56:48;;;;;;;32.50;7.72;;;;;;;4.18;100.00;102151.09;5095898;28;20039;-77
2022/11/27 01:59:16;;;;;;;32.85;8.48;;;;;;;4.17;100.00;102149.34;5083113;28;20032;-77
2022/11/27 02:01:41;;;;;;;29.25;7.28;;;;;;;4.14;100.00;102150.28;5085065;28;20082;-77
2022/11/27 02:04:07;;;;;;;29.73;7.80;;;;;;;4.16;100.00;102151.13;5059330;28;20442;-77
2022/11/27 02:06:32;;;;;;;25.58;7.63;;;;;;;4.23;100.00;102155.44;5066848;28;20024;-77
2022/11/27 02:08:58;;;;;;;32.65;8.63;;;;;;;4.16;100.00;102137.56;5074939;28;20513;-77
2022/11/27 02:11:35;;;;;;;31.27;7.75;;;;;;;4.26;100.00;102127.34;5065580;28;20032;-77
2022/11/27 02:14:21;;;;;;;24.95;7.20;;;;;;;4.23;100.00;102125.63;5059144;28;20039;-77
2022/11/27 02:17:02;;;;;;;28.25;7.00;;;;;;;4.25;100.00;102128.28;5075872;28;20078;-77
2022/11/27 02:20:12;;;;;;;34.85;8.93;;;;;;;4.27;100.00;102109.25;5090808;28;20064;-77
2022/11/27 02:23:08;;;;;;;30.48;6.30;;;;;;;4.35;100.00;102104.47;5082799;28;20039;-77
2022/11/27 02:25:48;;;;;;;27.65;7.93;;;;;;;4.27;100.00;102099.28;5094505;28;20028;-77
2022/11/27 02:28:19;;;;;;;34.67;6.43;;;;;;;4.32;100.00;102077.47;5076352;28;20080;-77
2022/11/27 02:30:55;;;;;;;31.08;7.60;;;;;;;4.35;100.00;102077.38;5077988;28;20509;-77
2022/11/27 02:33:22;;;;;;;28.45;7.03;;;;;;;4.28;100.00;102070.34;5095187;28;20032;-77
2022/11/27 02:35:59;;;;;;;28.73;5.50;;;;;;;4.35;100.00;102077.38;5094196;28;20028;-77
2022/11/27 02:38:30;;;;;;;20.15;6.25;;;;;;;4.34;100.00;102051.19;5071324;28;20067;-77
2022/11/27 02:41:09;;;;;;;17.50;5.80;;;;;;;4.40;100.00;102051.84;5080679;28;20024;-77
2022/11/27 02:43:41;;;;;;;35.35;7.07;;;;;;;4.35;100.00;102043.00;5057968;28;20037;-77
2022/11/27 02:46:09;;;;;;;24.15;5.90;;;;;;;4.37;100.00;102037.53;5081314;28;20024;-77
2022/11/27 02:48:41;;;;;;;17.35;5.75;;;;;;;4.33;100.00;102035.84;5074610;28;20384;-77
2022/11/27 02:51:08;;;;;;;23.17;5.63;;;;;;;4.45;100.00;102040.84;5074444;28;20025;-77
2022/11/27 02:53:55;;;;;;;25.40;6.22;;;;;;;4.40;100.00;102040.13;5057754;28;20028;-76
2022/11/27 02:56:25;;;;;;;22.15;5.65;;;;;;;4.38;100.00;102053.75;5064506;28;20032;-77
2022/11/27 02:58:54;;;;;;;33.30;6.30;;;;;;;4.36;100.00;102057.44;5082087;28;20043;-77
2022/11/27 03:01:21;;;;;;;27.50;6.95;;;;;;;4.37;100.00;102054.66;5078477;28;20028;-77
2022/11/27 03:03:50;;;;;;;35.28;6.13;;;;;;;4.38;100.00;102051.03;5077762;28;20036;-77
2022/11/27 03:06:32;;;;;;;32.45;6.13;;;;;;;4.45;100.00;102045.41;5087683;28;20028;-77
2022/11/27 03:09:26;;;;;;;24.77;5.70;;;;;;;4.40;100.00;102042.84;5087454;28;20043;-77
2022/11/27 03:11:51;;;;;;;26.15;5.20;;;;;;;4.44;100.00;102039.06;5085554;28;20032;-77
2022/11/27 03:14:19;;;;;;;23.98;6.28;;;;;;;4.41;100.00;102044.59;5092583;28;20040;-77
2022/11/27 03:16:44;;;;;;;22.30;5.72;;;;;;;4.46;100.00;102039.94;5040514;28;20072;-77
2022/11/27 03:19:19;;;;;;;21.35;5.45;;;;;;;4.48;100.00;102040.75;5089142;28;20051;-77
2022/11/27 03:21:52;;;;;;;38.22;5.43;;;;;;;4.50;100.00;102038.88;5068150;28;20036;-77
2022/11/27 03:24:18;;;;;;;20.48;5.80;;;;;;;4.52;100.00;102045.13;5108819;28;20113;-77
2022/11/27 03:26:43;;;;;;;22.33;4.57;;;;;;;4.51;100.00;102047.88;5070725;28;20434;-77
2022/11/27 03:29:18;;;;;;;31.05;5.75;;;;;;;4.58;100.00;102044.91;5079965;28;20032;-77
2022/11/27 03:31:43;;;;;;;25.67;4.40;;;;;;;4.58;100.00;102044.03;5070449;28;20527;-77
2022/11/27 03:34:09;;;;;;;24.95;4.70;;;;;;;4.57;100.00;102037.69;5093213;28;20066;-77
2022/11/27 03:36:35;;;;;;;20.85;4.03;;;;;;;4.64;100.00;102027.56;5068481;28;20029;-77
2022/11/27 03:39:01;;;;;;;24.05;4.57;;;;;;;4.64;100.00;102032.06;5074695;28;20048;-77
2022/11/27 03:41:37;;;;;;;21.95;4.72;;;;;;;4.67;100.00;102043.69;5034194;28;20550;-77
2022/11/27 03:44:08;;;;;;;30.63;4.95;;;;;;;4.69;100.00;102038.22;5095960;28;20032;-77
2022/11/27 03:46:53;;;;;;;21.20;3.97;;;;;;;4.71;100.00;102041.78;5094857;28;20111;-77
2022/11/27 03:50:02;;;;;;;18.73;4.25;;;;;;;4.73;100.00;102040.78;5076265;28;20037;-77
2022/11/27 03:52:30;;;;;;;23.13;4.43;;;;;;;4.78;100.00;102036.06;5024797;28;20072;-78
2022/11/27 03:55:03;;;;;;;25.05;4.03;;;;;;;4.72;100.00;102032.69;5071348;28;20079;-78
2022/11/27 03:58:00;;;;;;;17.75;3.72;;;;;;;4.76;100.00;102039.78;5074248;28;20033;-77
2022/11/27 04:00:32;;;;;;;16.60;3.83;;;;;;;4.83;100.00;102029.59;5058654;28;20071;-77
2022/11/27 04:02:57;;;;;;;21.92;4.78;;;;;;;4.84;100.00;102013.25;5092384;28;20071;-77
2022/11/27 04:05:23;;;;;;;20.85;4.07;;;;;;;4.86;100.00;102015.94;5040865;28;20384;-77
2022/11/27 04:07:49;;;;;;;18.45;4.30;;;;;;;4.89;100.00;102021.25;5040049;28;20025;-77
2022/11/27 04:10:14;;;;;;;21.42;4.78;;;;;;;4.89;100.00;102013.09;5084598;28;20458;-76
2022/11/27 04:12:40;;;;;;;22.85;3.88;;;;;;;4.89;100.00;102015.81;5093486;28;20469;-77
2022/11/27 04:15:06;;;;;;;22.15;4.10;;;;;;;4.89;100.00;102013.97;5076957;28;20496;-77
2022/11/27 04:17:32;;;;;;;23.60;4.28;;;;;;;4.91;100.00;102014.81;5089538;28;20052;-77
2022/11/27 04:19:57;;;;;;;17.65;3.55;;;;;;;4.92;100.00;102008.44;5057028;28;20050;-78
2022/11/27 04:22:23;;;;;;;25.50;5.25;;;;;;;4.87;100.00;102009.53;5073891;28;20033;-77
2022/11/27 04:24:49;;;;;;;11.20;3.75;;;;;;;4.89;100.00;102005.84;5040138;28;20065;-77
2022/11/27 04:27:14;;;;;;;20.98;4.05;;;;;;;4.94;100.00;102011.97;5073663;28;20063;-77
2022/11/27 04:29:40;;;;;;;17.90;4.45;;;;;;;4.95;100.00;102005.63;5042917;28;20439;-77
2022/11/27 04:32:05;;;;;;;15.70;4.32;;;;;;;4.93;100.00;102002.06;5059594;28;20503;-79
2022/11/27 04:34:31;;;;;;;20.35;5.25;;;;;;;4.99;100.00;102006.38;5058897;28;20101;-76
2022/11/27 04:36:57;;;;;;;19.00;4.15;;;;;;;4.97;100.00;102003.72;5069026;28;20050;-77
2022/11/27 04:39:22;;;;;;;25.40;4.80;;;;;;;4.94;100.00;102000.25;5076021;28;20039;-77
2022/11/27 04:41:48;;;;;;;16.05;4.68;;;;;;;4.96;100.00;102004.66;5086474;28;20060;-77
2022/11/27 04:44:14;;;;;;;32.95;5.47;;;;;;;4.99;100.00;102011.81;5092668;28;20032;-77
2022/11/27 04:46:39;;;;;;;26.67;4.78;;;;;;;5.03;100.00;102009.88;5067025;28;20430;-78
2022/11/27 04:49:04;;;;;;;28.30;4.93;;;;;;;5.02;100.00;102002.66;5095715;28;20036;-77
2022/11/27 04:51:30;;;;;;;22.85;5.82;;;;;;;5.00;100.00;102007.25;5060558;28;20032;-78
2022/11/27 04:53:56;;;;;;;20.85;5.43;;;;;;;5.00;100.00;102009.97;5077478;28;20064;-77
2022/11/27 04:56:21;;;;;;;22.63;4.72;;;;;;;5.02;100.00;102009.00;5066324;28;20582;-76
2022/11/27 04:58:47;;;;;;;25.27;5.95;;;;;;;4.97;100.00;102014.59;5065533;28;20526;-77
2022/11/27 05:01:12;;;;;;;27.08;5.20;;;;;;;4.99;100.00;102003.66;5075864;28;20112;-77
2022/11/27 05:03:37;;;;;;;36.88;6.18;;;;;;;4.94;100.00;101992.97;5076180;28;20028;-77
2022/11/27 05:06:03;;;;;;;28.98;6.38;;;;;;;4.94;100.00;101992.97;5063013;28;20032;-77
2022/11/27 05:08:30;;;;;;;21.00;6.10;;;;;;;4.91;100.00;101975.94;5070105;28;20495;-77
2022/11/27 05:11:07;;;;;;;22.70;6.60;;;;;;;5.00;100.00;101980.13;5086036;28;20040;-77
2022/11/27 05:13:33;;;;;;;22.90;6.85;;;;;;;4.95;100.00;101973.06;5096374;28;20032;-77
2022/11/27 05:15:58;;;;;;;23.17;6.30;;;;;;;4.99;100.00;101972.94;5078212;28;20055;-77
2022/11/27 05:18:24;;;;;;;27.60;6.72;;;;;;;4.92;100.00;101970.44;5078535;28;20116;-77
2022/11/27 05:21:00;;;;;;;30.70;6.55;;;;;;;4.97;100.00;101978.44;5096094;28;20039;-77
2022/11/27 05:23:26;;;;;;;33.25;7.63;;;;;;;4.91;100.00;101965.94;5082248;28;20802;-77
2022/11/27 05:25:52;;;;;;;32.70;7.30;;;;;;;4.87;100.00;101944.41;5086913;28;20111;-77
2022/11/27 05:28:18;;;;;;;35.35;6.90;;;;;;;4.90;100.00;101942.50;5067835;28;20028;-77
2022/11/27 05:30:44;;;;;;;28.88;6.47;;;;;;;5.01;100.00;101943.91;5057949;28;20488;-77
2022/11/27 05:33:09;;;;;;;24.73;7.13;;;;;;;4.93;100.00;101942.34;5097049;28;20495;-77
2022/11/27 05:35:35;;;;;;;28.90;7.55;;;;;;;4.95;100.00;101940.50;5085320;28;20031;-78
2022/11/27 05:38:00;;;;;;;26.48;7.55;;;;;;;5.00;100.00;101955.69;5052266;28;20123;-78
2022/11/27 05:40:26;;;;;;;29.33;7.10;;;;;;;5.01;100.00;101944.78;5059510;28;20036;-77
2022/11/27 05:42:51;;;;;;;27.42;6.95;;;;;;;5.00;100.00;101945.75;5062875;28;20054;-78
2022/11/27 05:45:17;;;;;;;29.88;7.78;;;;;;;5.03;100.00;101944.72;5062611;28;20060;-77
2022/11/27 05:47:42;;;;;;;38.38;7.90;;;;;;;4.97;100.00;101930.44;5072102;28;20036;-77
2022/11/27 05:50:08;;;;;;;34.45;8.30;;;;;;;5.01;100.00;101928.50;5041862;28;20028;-77
2022/11/27 05:52:33;;;;;;;30.23;7.20;;;;;;;5.05;100.00;101929.25;5077856;28;20089;-77
2022/11/27 05:54:59;;;;;;;26.83;6.63;;;;;;;5.07;100.00;101939.13;5097318;28;20034;-77
2022/11/27 05:57:25;;;;;;;31.42;8.32;;;;;;;5.07;100.00;101930.97;5063209;28;20028;-78
2022/11/27 05:59:50;;;;;;;34.08;8.13;;;;;;;5.07;100.00;101921.97;5074566;28;20128;-78
2022/11/27 06:02:16;;;;;;;26.92;7.75;;;;;;;5.13;100.00;101928.03;5081309;28;20119;-77
2022/11/27 06:04:41;;;;;;;24.25;7.50;;;;;;;5.13;100.00;101927.13;5058505;28;20391;-77
2022/11/27 06:07:07;;;;;;;26.25;8.07;;;;;;;5.14;100.00;101928.91;5077754;28;20123;-77
2022/11/27 06:09:32;;;;;;;31.70;8.65;;;;;;;5.12;100.00;101918.09;5095706;28;20468;-77
2022/11/27 06:11:58;;;;;;;28.55;8.32;;;;;;;5.06;100.00;101914.75;5060761;28;20102;-77
2022/11/27 06:14:23;;;;;;;29.80;8.75;;;;;;;5.11;100.00;101915.44;5040431;28;20032;-78
2022/11/27 06:16:49;;;;;;;25.25;8.38;;;;;;;5.07;100.00;101911.97;5076154;28;20051;-78
2022/11/27 06:19:14;;;;;;;30.95;8.38;;;;;;;5.05;100.00;101913.88;5059766;28;20044;-78
2022/11/27 06:21:40;;;;;;;31.90;7.60;;;;;;;5.08;100.00;101904.72;5049061;28;20032;-77
2022/11/27 06:24:05;;;;;;;42.40;8.40;;;;;;;5.08;100.00;101899.28;5077539;28;20032;-77
2022/11/27 06:26:32;;;;;;;21.80;7.80;;;;;;;5.13;100.00;101898.19;5093247;28;20028;-77
2022/11/27 06:28:59;;;;;;;28.85;9.30;;;;;;;5.11;100.00;101891.03;5078276;28;20020;-77
2022/11/27 06:31:27;;;;;;;29.77;9.02;;;;;;;5.02;100.00;101892.28;5093114;28;20463;-77
2022/11/27 06:33:54;;;;;;;36.80;8.98;;;;;;;4.94;100.00;101879.00;5080099;28;20123;-77
2022/11/27 06:36:21;;;;;;;23.17;7.90;;;;;;;5.03;100.00;101879.59;5067806;28;20036;-77
2022/11/27 06:38:47;;;;;;;36.70;9.45;;;;;;;5.11;100.00;101891.03;5076973;28;20117;-77
2022/11/27 06:41:16;;;;;;;38.00;8.50;;;;;;;5.19;100.00;101896.16;5065004;28;20040;-77
2022/11/27 06:43:41;;;;;;;34.67;9.73;;;;;;;5.18;100.00;101887.09;5096213;28;20081;-77
2022/11/27 06:46:11;;;;;;;29.63;9.93;;;;;;;5.09;100.00;101887.50;5072966;28;20016;-77
2022/11/27 06:48:37;;;;;;;45.97;9.70;;;;;;;5.15;100.00;101888.13;5078658;28;20035;-78
2022/11/27 06:51:05;;;;;;;34.83;10.70;;;;;;;5.15;100.00;101881.81;5057124;28;20048;-77
2022/11/27 06:53:32;;;;;;;38.70;9.48;;;;;;;5.16;100.00;101886.28;5074668;28;20055;-77
2022/11/27 06:55:57;;;;;;;37.22;10.75;;;;;;;5.20;100.00;101885.25;5044621;28;20024;-77
2022/11/27 06:58:23;;;;;;;34.25;9.38;;;;;;;5.15;100.00;101887.25;5074969;28;20051;-77
2022/11/27 07:00:48;;;;;;;43.10;10.43;;;;;;;5.22;100.00;101898.75;5093329;28;20031;-77
2022/11/27 07:03:14;;;;;;;36.80;10.70;;;;;;;5.18;100.00;101887.09;5061126;28;20043;-77
2022/11/27 07:05:40;;;;;;;38.08;10.13;;;;;;;5.22;100.00;101898.75;5059554;28;20511;-77
2022/11/27 07:08:05;;;;;;;34.28;9.25;;;;;;;5.20;100.00;101900.63;5071959;28;20388;-77
2022/11/27 07:10:34;;;;;;;44.92;10.38;;;;;;;5.22;100.00;101893.31;5062971;28;20067;-78
2022/11/27 07:13:00;;;;;;;34.78;10.10;;;;;;;5.19;100.00;101882.59;5096454;28;20070;-77
2022/11/27 07:15:26;;;;;;;44.80;11.60;;;;;;;5.14;100.00;101861.03;5082330;28;20039;-77
2022/11/27 07:17:51;;;;;;;40.80;11.68;;;;;;;5.19;100.00;101867.16;5058077;28;20045;-77
2022/11/27 07:20:17;;;;;;;30.45;10.23;;;;;;;5.24;100.00;101875.13;5077127;28;20044;-77
2022/11/27 07:22:42;;;;;;;38.45;11.00;;;;;;;5.27;100.00;101877.72;5071565;28;20072;-77
2022/11/27 07:25:08;;;;;;;38.15;11.45;;;;;;;5.27;100.00;101873.19;5068415;28;20032;-77
2022/11/27 07:27:34;;;;;;;46.78;12.13;;;;;;;5.25;100.00;101857.91;5076970;28;20486;-78
2022/11/27 07:29:59;;;;;;;32.42;10.52;;;;;;;5.26;100.00;101870.50;5095238;28;20039;-77
2022/11/27 07:32:24;;;;;;;39.53;11.02;;;;;;;5.24;100.00;101867.00;5059483;28;20032;-77
2022/11/27 07:34:50;;;;;;;30.55;11.27;;;;;;;5.24;100.00;101851.56;5038995;28;20503;-77
2022/11/27 07:37:15;;;;;;;44.15;12.23;;;;;;;5.28;100.00;101852.31;5054700;28;20040;-79
2022/11/27 07:39:41;;;;;;;54.55;11.77;;;;;;;5.28;100.00;101857.75;5093478;28;20040;-77
2022/11/27 07:42:06;;;;;;;47.15;11.50;;;;;;;5.31;100.00;101855.81;5080980;28;20500;-77
2022/11/27 07:44:32;;;;;;;47.67;12.60;;;;;;;5.31;100.00;101849.50;5075835;28;20040;-78
2022/11/27 07:46:57;;;;;;;50.80;11.35;;;;;;;5.26;100.00;101849.69;5055547;28;20407;-77
2022/11/27 07:49:22;;;;;;;48.50;12.32;;;;;;;5.31;100.00;101844.97;5065393;28;20043;-76
2022/11/27 07:51:48;;;;;;;46.25;11.18;;;;;;;5.28;100.00;101842.38;5055040;28;20040;-77
2022/11/27 07:54:13;;;;;;;42.50;11.93;;;;;;;5.20;100.00;101846.31;5090663;28;20043;-77
2022/11/27 07:56:39;;;;;;;41.95;12.77;;;;;;;5.20;100.00;101844.53;5055272;28;20043;-77
2022/11/27 07:59:04;;;;;;;50.58;11.90;;;;;;;5.25;100.00;101838.91;5073029;28;20115;-78
2022/11/27 08:01:30;;;;;;;43.53;12.55;;;;;;;5.22;100.00;101839.91;5084904;28;20583;-77
2022/11/27 08:03:55;;;;;;;55.47;13.63;;;;;;;5.32;100.00;101832.25;5090248;28;20047;-78
2022/11/27 08:06:23;;;;;;;52.78;12.75;;;;;;;5.21;100.00;101837.25;5083315;28;20036;-77
2022/11/27 08:08:50;;;;;;;47.08;13.63;;;;;;;5.20;100.00;101827.31;5081704;28;20032;-77
2022/11/27 08:11:24;;;;;;;49.90;13.55;;;;;;;5.20;100.00;101833.66;5068324;28;20032;-77
2022/11/27 08:13:54;;;;;;;59.35;14.88;;;;;;;5.17;100.00;101820.19;5058074;28;20128;-77
2022/11/27 08:16:20;;;;;;;42.53;13.45;;;;;;;5.12;100.00;101806.81;5080880;28;20513;-77
2022/11/27 08:18:45;;;;;;;49.75;13.68;;;;;;;5.14;100.00;101799.47;5072837;28;20042;-77
2022/11/27 08:21:11;;;;;;;51.00;13.25;;;;;;;5.16;100.00;101796.72;5073327;28;20050;-76
2022/11/27 08:23:36;;;;;;;51.70;13.23;;;;;;;5.20;100.00;101797.47;5061200;28;20041;-77
2022/11/27 08:26:10;;;;;;;65.70;15.43;;;;;;;5.17;100.00;101798.50;5088172;28;20429;-77
2022/11/27 08:28:36;;;;;;;59.67;15.60;;;;;;;5.23;100.00;101795.53;5083694;28;20064;-78
2022/11/27 08:31:03;;;;;;;54.92;13.68;;;;;;;5.19;100.00;101793.88;5089616;28;20040;-78
2022/11/27 08:33:29;;;;;;;49.13;14.52;;;;;;;5.18;100.00;101788.50;5076479;28;20042;-78
2022/11/27 08:35:54;;;;;;;59.15;16.20;;;;;;;5.21;100.00;101788.38;5089331;28;20036;-77
2022/11/27 08:38:20;;;;;;;52.58;15.35;;;;;;;5.23;100.00;101789.19;5070284;28;20392;-77
2022/11/27 08:40:54;;;;;;;52.78;14.02;;;;;;;5.21;100.00;101781.09;5089959;28;20024;-80
2022/11/27 08:43:20;;;;;;;52.90;13.77;;;;;;;5.25;100.00;101784.59;5053909;28;20032;-78
2022/11/27 08:45:45;;;;;;;57.88;16.33;;;;;;;5.17;100.00;101773.19;5063530;28;20033;-78
2022/11/27 08:48:11;;;;;;;41.28;13.32;;;;;;;5.25;100.00;101776.47;5053038;28;20032;-78
2022/11/27 08:50:36;;;;;;;46.70;13.85;;;;;;;5.19;100.00;101765.84;5097373;28;20110;-77
2022/11/27 08:53:02;;;;;;;59.78;14.55;;;;;;;5.23;100.00;101768.38;5091984;28;20106;-77
2022/11/27 08:55:28;;;;;;;69.82;15.98;;;;;;;5.28;100.00;101763.63;5069396;28;20040;-77
2022/11/27 08:57:53;;;;;;;54.00;14.43;;;;;;;5.31;100.00;101765.31;5091064;28;20073;-77
2022/11/27 09:00:19;;;;;;;40.38;12.88;;;;;;;5.37;100.00;101765.06;5077773;28;20127;-77
2022/11/27 09:02:45;;;;;;;45.78;13.75;;;;;;;5.41;100.00;101771.25;5087564;28;20101;-76
2022/11/27 09:05:10;;;;;;;58.90;14.07;;;;;;;5.39;100.00;101755.00;5079293;28;20483;-76
2022/11/27 09:07:36;;;;;;;50.70;13.32;;;;;;;5.42;100.00;101757.59;5075373;28;20122;-76
2022/11/27 09:10:01;;;;;;;53.90;14.98;;;;;;;5.44;100.00;101754.81;5063009;28;20060;-76
2022/11/27 09:12:27;;;;;;;57.88;14.60;;;;;;;5.49;100.00;101752.78;5091271;28;20040;-77
2022/11/27 09:14:53;;;;;;;49.28;13.93;;;;;;;5.50;100.00;101741.84;5096146;28;20109;-77
2022/11/27 09:17:18;;;;;;;44.47;14.13;;;;;;;5.56;100.00;101743.44;5061530;28;20093;-77
2022/11/27 09:19:44;;;;;;;50.72;15.05;;;;;;;5.58;100.00;101741.53;5075008;28;20527;-77
2022/11/27 09:22:09;;;;;;;53.70;14.98;;;;;;;5.61;100.00;101740.53;5096246;28;20096;-78
2022/11/27 09:24:35;;;;;;;41.38;13.13;;;;;;;5.69;100.00;101744.66;5071131;28;20024;-77
2022/11/27 09:27:01;;;;;;;52.80;13.95;;;;;;;5.68;100.00;101739.28;5090060;28;20032;-77
2022/11/27 09:29:26;;;;;;;45.13;13.55;;;;;;;5.66;100.00;101742.06;5079351;28;20047;-77
2022/11/27 09:31:52;;;;;;;47.38;14.68;;;;;;;5.73;100.00;101748.13;5052886;28;20050;-77
2022/11/27 09:34:17;;;;;;;56.15;13.35;;;;;;;5.76;100.00;101741.66;5056181;28;20048;-77
2022/11/27 09:36:43;;;;;;;46.28;12.68;;;;;;;5.76;100.00;101736.25;5074504;28;20047;-77
2022/11/27 09:39:08;;;;;;;62.20;13.00;;;;;;;5.80;100.00;101744.16;5056274;28;20154;-77
2022/11/27 09:41:45;;;;;;;40.63;12.75;;;;;;;5.81;100.00;101748.66;5058106;28;20086;-77
2022/11/27 09:44:28;;;;;;;40.05;12.48;;;;;;;5.82;100.00;101747.72;5093752;28;20032;-77
2022/11/27 09:46:55;;;;;;;38.85;11.55;;;;;;;5.87;100.00;101745.66;5096573;28;20368;-77
2022/11/27 09:49:37;;;;;;;41.22;12.43;;;;;;;5.92;100.00;101752.72;5059444;28;20403;-78
2022/11/27 09:52:12;;;;;;;55.53;12.48;;;;;;;5.96;100.00;101749.81;5093755;28;20036;-77
2022/11/27 09:54:49;;;;;;;50.13;12.05;;;;;;;5.96;100.00;101747.09;5075753;28;20059;-77
2022/11/27 09:57:19;;;;;;;49.90;11.88;;;;;;;5.89;100.00;101743.75;5083441;28;20503;-76
2022/11/27 09:59:50;;;;;;;44.70;12.98;;;;;;;5.91;100.00;101746.41;5083804;28;20035;-76
2022/11/27 10:02:29;;;;;;;43.03;12.38;;;;;;;5.97;100.00;101747.97;5061196;28;20068;-76
2022/11/27 10:04:56;;;;;;;43.30;12.45;;;;;;;5.96;100.00;101747.09;5069044;28;20024;-78
2022/11/27 10:07:22;;;;;;;40.97;12.10;;;;;;;5.99;100.00;101733.38;5072746;28;20036;-76
2022/11/27 10:09:47;;;;;;;37.97;12.40;;;;;;;6.02;100.00;101735.97;5091523;28;20043;-77
2022/11/27 10:12:26;;;;;;;42.58;12.85;;;;;;;6.06;100.00;101732.13;5088606;28;20056;-76
2022/11/27 10:15:14;;;;;;;35.78;11.73;;;;;;;6.06;100.00;101729.41;5070864;28;20059;-77
2022/11/27 10:18:04;;;;;;;40.83;12.10;;;;;;;6.09;100.00;101727.53;5084006;28;20044;-77
2022/11/27 10:20:50;;;;;;;38.78;12.15;;;;;;;6.13;100.00;101720.97;5067965;28;20032;-78
2022/11/27 10:23:40;;;;;;;37.33;12.20;;;;;;;6.12;100.00;101719.22;5057968;28;20089;-77
2022/11/27 10:26:30;;;;;;;32.63;11.38;;;;;;;6.14;100.00;101710.03;5078683;28;20024;-76
2022/11/27 10:29:12;;;;;;;42.20;11.80;;;;;;;6.14;100.00;101714.59;5071696;28;20097;-76
2022/11/27 10:31:50;;;;;;;28.73;11.23;;;;;;;6.19;100.00;101702.53;5082730;28;20035;-77
2022/11/27 10:34:36;;;;;;;41.10;11.82;;;;;;;6.23;100.00;101697.84;5063485;28;20048;-77
2022/11/27 10:37:18;;;;;;;38.38;12.48;;;;;;;6.18;100.00;101683.56;5088609;28;20046;-76
2022/11/27 10:39:57;;;;;;;42.60;11.88;;;;;;;6.18;100.00;101680.84;5068429;28;20116;-76
2022/11/27 10:42:47;;;;;;;41.83;12.73;;;;;;;6.23;100.00;101682.44;5090752;28;20034;-76
2022/11/27 10:45:49;;;;;;;30.90;11.25;;;;;;;6.28;100.00;101682.22;5074124;28;20502;-76
2022/11/27 10:48:15;;;;;;;30.42;11.23;;;;;;;6.26;100.00;101678.66;5091428;28;20063;-76
2022/11/27 10:50:42;;;;;;;39.28;12.32;;;;;;;6.33;100.00;101679.25;5078773;28;20032;-76
2022/11/27 10:53:13;;;;;;;31.00;11.52;;;;;;;6.32;100.00;101675.66;5070762;28;20036;-76
2022/11/27 10:56:16;;;;;;;31.48;11.75;;;;;;;6.36;100.00;101676.38;5069577;28;20071;-77
2022/11/27 10:58:57;;;;;;;33.13;10.70;;;;;;;6.40;100.00;101678.00;5085074;28;20036;-77
2022/11/27 11:01:24;;;;;;;41.05;12.70;;;;;;;6.43;100.00;101667.84;5065069;28;20395;-77
2022/11/27 11:03:50;;;;;;;29.58;11.65;;;;;;;6.43;100.00;101658.81;5087852;28;20032;-77
2022/11/27 11:06:22;;;;;;;40.08;13.05;;;;;;;6.43;100.00;101650.66;5064401;28;20054;-77
2022/11/27 11:08:59;;;;;;;35.13;11.85;;;;;;;6.52;100.00;101647.47;5079320;28;20024;-77
2022/11/27 11:11:25;;;;;;;32.08;12.18;;;;;;;6.48;100.00;101644.97;5072186;28;20081;-77
2022/11/27 11:13:51;;;;;;;26.83;10.82;;;;;;;6.48;100.00;101637.72;5073885;28;20383;-77
2022/11/27 11:16:21;;;;;;;28.85;11.45;;;;;;;6.52;100.00;101631.16;5086583;28;20048;-77
2022/11/27 11:18:49;;;;;;;32.80;11.27;;;;;;;6.48;100.00;101635.00;5085052;28;20530;-77
2022/11/27 11:21:21;;;;;;;25.10;11.20;;;;;;;6.56;100.00;101637.31;5067379;28;20476;-77
2022/11/27 11:24:02;;;;;;;29.33;10.55;;;;;;;6.57;100.00;101630.91;5075703;28;20403;-78